KELD/ELD METAR and TAF weather

Enter ICAO airport designator
Station Type Date Time Source
KELD METAR 2018/10/19 14:53 UTC NOAA

KELD 191453Z AUTO 08004KT 10SM CLR 16/10 A3026 RMK AO2 SLP243 T01610100 50006


Station Type Date Time Source
KELD Decoded METAR 2018/10/19 14:53 UTC NOAA

SOUTH ARKANSAS REGIONAL, AR, United States (KELD) 33-13N 092-49W 81M
Oct 19, 2018 - 10:53 AM EDT / 2018.10.19 1453 UTC
Wind: from the E (080 degrees) at 5 MPH (4 KT):0
Visibility: 10 mile(s):0
Sky conditions: clear
Temperature: 61.0 F (16.1 C)
Dew Point: 50.0 F (10.0 C)
Relative Humidity: 67%
Pressure (altimeter): 30.26 in. Hg (1024 hPa)
Pressure tendency: 0.02 inches (0.6 hPa) higher than three hours ago
ob: KELD 191453Z AUTO 08004KT 10SM CLR 16/10 A3026 RMK AO2 SLP243 T01610100 50006
cycle: 15

Station Type Date Time Source
KELD TAF 2018/10/19 12:51 UTC NOAA

TAF KELD 191149Z 1912/2012 00000KT P6SM BKN200
FM191500 09004KT P6SM SCT040 BKN180 OVC250
FM192000 32004KT P6SM BKN050
FM200000 33003KT P6SM -RA OVC050
FM200300 36002KT 5SM -RA OVC050
FM200600 34003KT 4SM -RA BR OVC007
FM200900 35005KT 2SM -RA BR OVC004


Example: see airport list